CheckWX is a tool to help pilots better visualize weather data.  It is not intended as a substitute for an official pre-flight weather briefing.

17:49:37 UTC

KEHY METAR
Elk Mountain
Elk Mountain, Wyoming, USA
Current

35 mins ago

KEHY 291715Z AUTO 22010KT 10SM CLR 24/M04 A3028 RMK AO2 LTG DSNT NW PWINO
Observed
May-29 @ 17:15 UTC
Wind
  • 220° at 10 KTS
Visibility
Flight Rules
VFR
Cloud Levels
  • Clear skies
Temperature
24°C / 75°F
Dewpoint
-4°C / 25°F
Humidity
15%
Altimeter
30.28" Hg
Pressure
1025.42 hPa
Previous

55 mins ago

KEHY 291655Z AUTO 25012G18KT 10SM CLR 23/M04 A3028 RMK AO2 PWINO
Observed
May-29 @ 16:55 UTC
Wind
  • 250° at 12 KTS
  • Gusting to 18 KTS
Visibility
Flight Rules
VFR
Cloud Levels
  • Clear skies
Temperature
23°C / 73°F
Dewpoint
-4°C / 25°F
Humidity
16%
Altimeter
30.28" Hg
Pressure
1025.42 hPa
Previous

1 hour ago

KEHY 291635Z AUTO 28011G14KT 10SM CLR 22/M05 A3028 RMK AO2 PWINO
Observed
May-29 @ 16:35 UTC
Wind
  • 280° at 11 KTS
  • Gusting to 14 KTS
Visibility
Flight Rules
VFR
Cloud Levels
  • Clear skies
Temperature
22°C / 72°F
Dewpoint
-5°C / 23°F
Humidity
16%
Altimeter
30.28" Hg
Pressure
1025.42 hPa